Time;durP1;ratioP1;P1;durP2;ratioP2;P2;SDS_P1;SDS_P2;PMS_P1;PMS_P2;Temp;Humidity;BMP_temperature;BMP_pressure;BME280_temperature;BME280_humidity;BME280_pressure;Samples;Min_cycle;Max_cycle;Signal;HPM_P1;HPM_P2
2023/06/21 00:00:47;;;;;;;;;;;21.60;74.90;;;;;;5015072;28;86427;-51
2023/06/21 00:03:13;;;;;;;;;;;21.60;74.80;;;;;;5016615;28;87056;-47
2023/06/21 00:05:39;;;;;;;;;;;21.60;74.80;;;;;;5012240;28;87109;-49
2023/06/21 00:08:05;;;;;;;;;;;21.60;75.30;;;;;;5013958;28;88262;-47
2023/06/21 00:10:31;;;;;;;;;;;21.60;74.70;;;;;;5010983;28;87969;-52
2023/06/21 00:12:57;;;;;;;;;;;21.60;74.70;;;;;;5014178;28;87217;-48
2023/06/21 00:15:22;;;;;;;;;;;21.50;74.80;;;;;;5011673;28;88921;-50
2023/06/21 00:17:48;;;;;;;;;;;21.50;74.80;;;;;;5012699;28;88122;-47
2023/06/21 00:20:14;;;;;;;;;;;21.50;74.80;;;;;;5014803;28;87706;-51
2023/06/21 00:22:40;;;;;;;;;;;21.50;74.80;;;;;;5012097;28;87603;-47
2023/06/21 00:25:06;;;;;;;;;;;21.50;74.70;;;;;;5016178;28;87286;-50
2023/06/21 00:27:32;;;;;;;;;;;21.40;74.80;;;;;;5012285;28;87115;-49
2023/06/21 00:29:57;;;;;;;;;;;21.40;74.80;;;;;;5014151;28;87273;-49
2023/06/21 00:32:23;;;;;;;;;;;21.40;74.70;;;;;;5012472;28;88102;-49
2023/06/21 00:34:48;;;;;;;;;;;21.40;74.80;;;;;;5011891;28;88959;-51
2023/06/21 00:37:14;;;;;;;;;;;21.40;74.90;;;;;;5012729;28;90083;-49
2023/06/21 00:39:39;;;;;;;;;;;21.40;74.90;;;;;;5012163;28;87118;-49
2023/06/21 00:42:05;;;;;;;;;;;21.40;74.80;;;;;;5010106;28;87027;-50
2023/06/21 00:44:31;;;;;;;;;;;21.40;74.90;;;;;;5016345;28;89275;-48
2023/06/21 00:46:57;;;;;;;;;;;21.30;74.80;;;;;;5012009;28;87484;-51
2023/06/21 00:49:23;;;;;;;;;;;21.30;74.80;;;;;;5011756;28;86563;-47
2023/06/21 00:51:49;;;;;;;;;;;21.30;74.90;;;;;;5013291;28;87319;-47
2023/06/21 00:54:18;;;;;;;;;;;21.30;74.80;;;;;;5011513;28;87889;-51
2023/06/21 00:56:43;;;;;;;;;;;21.30;74.90;;;;;;5009114;28;89099;-47
2023/06/21 00:59:09;;;;;;;;;;;21.30;74.90;;;;;;5010711;28;87149;-49
2023/06/21 01:01:37;;;;;;;;;;;21.30;74.90;;;;;;5012114;28;88114;-47
2023/06/21 01:04:04;;;;;;;;;;;21.30;74.90;;;;;;5012960;28;89884;-50
2023/06/21 01:06:37;;;;;;;;;;;21.20;74.80;;;;;;5010151;28;87022;-52
2023/06/21 01:09:21;;;;;;;;;;;21.20;74.80;;;;;;5010192;28;89536;-49
2023/06/21 01:11:47;;;;;;;;;;;21.20;74.70;;;;;;5011037;28;87190;-48
2023/06/21 01:14:12;;;;;;;;;;;21.20;74.80;;;;;;5011238;28;87379;-49
2023/06/21 01:16:39;;;;;;;;;;;21.20;74.80;;;;;;5012150;28;87984;-51
2023/06/21 01:19:14;;;;;;;;;;;21.10;74.70;;;;;;5013503;28;87128;-47
2023/06/21 01:21:40;;;;;;;;;;;21.10;74.90;;;;;;5008042;28;87838;-47
2023/06/21 01:24:15;;;;;;;;;;;21.10;74.90;;;;;;5010925;28;87946;-49
2023/06/21 01:26:46;;;;;;;;;;;21.00;74.90;;;;;;5008535;28;87199;-48
2023/06/21 01:29:13;;;;;;;;;;;21.00;74.90;;;;;;5013582;28;87519;-47
2023/06/21 01:31:40;;;;;;;;;;;21.00;74.90;;;;;;5013008;28;87050;-48
2023/06/21 01:34:08;;;;;;;;;;;21.00;74.80;;;;;;5012844;28;87053;-50
2023/06/21 01:36:34;;;;;;;;;;;21.10;74.80;;;;;;5010618;28;87146;-48
2023/06/21 01:39:00;;;;;;;;;;;21.00;74.70;;;;;;5012552;28;86857;-48
2023/06/21 01:41:26;;;;;;;;;;;21.00;74.80;;;;;;5008025;28;88561;-47
2023/06/21 01:43:55;;;;;;;;;;;21.00;74.80;;;;;;5013110;28;88177;-48
2023/06/21 01:46:21;;;;;;;;;;;21.00;74.90;;;;;;5011349;28;88121;-52
2023/06/21 01:48:47;;;;;;;;;;;21.00;74.80;;;;;;5011050;28;88434;-50
2023/06/21 01:51:13;;;;;;;;;;;20.90;74.90;;;;;;5009733;28;87915;-47
2023/06/21 01:53:39;;;;;;;;;;;20.90;74.90;;;;;;5012202;28;87624;-51
2023/06/21 01:56:08;;;;;;;;;;;20.90;74.90;;;;;;5012469;28;89523;-47
2023/06/21 01:58:33;;;;;;;;;;;20.90;74.90;;;;;;5009296;28;87205;-50
2023/06/21 02:01:01;;;;;;;;;;;20.90;74.90;;;;;;5011811;28;87767;-47
2023/06/21 02:03:28;;;;;;;;;;;20.80;74.80;;;;;;5013452;28;87179;-48
2023/06/21 02:05:54;;;;;;;;;;;20.80;74.70;;;;;;5010755;28;87117;-49
2023/06/21 02:08:20;;;;;;;;;;;20.80;74.80;;;;;;5011386;28;87399;-49
2023/06/21 02:10:46;;;;;;;;;;;20.80;74.80;;;;;;5011866;28;89364;-49
2023/06/21 02:13:12;;;;;;;;;;;20.80;74.80;;;;;;5012809;28;87266;-47
2023/06/21 02:15:39;;;;;;;;;;;20.80;74.80;;;;;;5011554;28;89506;-49
2023/06/21 02:18:04;;;;;;;;;;;20.70;74.90;;;;;;5010403;28;87084;-50
2023/06/21 02:20:30;;;;;;;;;;;20.70;74.90;;;;;;5012456;28;88809;-50
2023/06/21 02:22:55;;;;;;;;;;;20.70;75.00;;;;;;5011646;28;87951;-49
2023/06/21 02:25:22;;;;;;;;;;;20.70;75.00;;;;;;5010354;28;87144;-50
2023/06/21 02:27:47;;;;;;;;;;;20.70;74.80;;;;;;5010777;28;88677;-49
2023/06/21 02:30:13;;;;;;;;;;;20.70;74.80;;;;;;5011718;28;87596;-48
2023/06/21 02:32:39;;;;;;;;;;;20.60;74.90;;;;;;5011357;28;87171;-50
2023/06/21 02:35:05;;;;;;;;;;;20.60;74.90;;;;;;5018116;28;88048;-49
2023/06/21 02:37:30;;;;;;;;;;;20.60;74.90;;;;;;5015091;28;87209;-49
2023/06/21 02:39:56;;;;;;;;;;;20.60;74.90;;;;;;5013132;28;87423;-47
2023/06/21 02:42:22;;;;;;;;;;;20.60;74.90;;;;;;5009705;28;88385;-48
2023/06/21 02:44:48;;;;;;;;;;;20.60;74.90;;;;;;5014761;28;87079;-47
2023/06/21 02:47:13;;;;;;;;;;;20.60;74.80;;;;;;5016286;28;87513;-47
2023/06/21 02:49:39;;;;;;;;;;;20.60;74.80;;;;;;5009472;28;88192;-49
2023/06/21 02:52:04;;;;;;;;;;;20.50;74.80;;;;;;5015606;28;86505;-47
2023/06/21 02:54:30;;;;;;;;;;;20.50;74.80;;;;;;5018299;28;87111;-50
2023/06/21 02:56:56;;;;;;;;;;;20.50;74.90;;;;;;5010232;28;87230;-49
2023/06/21 02:59:22;;;;;;;;;;;20.50;74.80;;;;;;5013886;28;87966;-50
2023/06/21 03:01:48;;;;;;;;;;;20.50;74.90;;;;;;5013356;28;88025;-46
2023/06/21 03:04:16;;;;;;;;;;;20.50;74.90;;;;;;5015673;28;87163;-49
2023/06/21 03:06:41;;;;;;;;;;;20.50;74.70;;;;;;5014393;28;88751;-48
2023/06/21 03:09:07;;;;;;;;;;;20.40;74.80;;;;;;5012934;28;88356;-48
2023/06/21 03:11:33;;;;;;;;;;;20.50;74.90;;;;;;5015299;28;87639;-49
2023/06/21 03:13:58;;;;;;;;;;;20.40;74.80;;;;;;5011549;28;87578;-48
2023/06/21 03:16:24;;;;;;;;;;;20.40;74.90;;;;;;5018164;28;88036;-50
2023/06/21 03:18:49;;;;;;;;;;;20.40;74.80;;;;;;5013195;28;87932;-49
2023/06/21 03:21:15;;;;;;;;;;;20.40;74.90;;;;;;5014624;28;88165;-49
2023/06/21 03:23:40;;;;;;;;;;;20.40;74.80;;;;;;5014267;28;88040;-52
2023/06/21 03:26:06;;;;;;;;;;;20.40;74.80;;;;;;5013094;28;88394;-52
2023/06/21 03:28:31;;;;;;;;;;;20.30;74.70;;;;;;5012322;28;88081;-47
2023/06/21 03:30:57;;;;;;;;;;;20.30;74.90;;;;;;5013863;28;87066;-54
2023/06/21 03:33:23;;;;;;;;;;;20.40;74.80;;;;;;5015347;28;88802;-48
2023/06/21 03:35:49;;;;;;;;;;;20.30;74.70;;;;;;5012634;28;88510;-50
2023/06/21 03:38:14;;;;;;;;;;;20.30;74.80;;;;;;5016437;28;87319;-51
2023/06/21 03:40:40;;;;;;;;;;;20.30;74.90;;;;;;5015023;28;87184;-51
2023/06/21 03:43:05;;;;;;;;;;;20.30;74.90;;;;;;5010304;28;87284;-55
2023/06/21 03:45:31;;;;;;;;;;;20.30;74.90;;;;;;5013515;28;87503;-52
2023/06/21 03:47:56;;;;;;;;;;;20.20;74.70;;;;;;5011197;28;89780;-53
2023/06/21 03:50:23;;;;;;;;;;;20.20;74.80;;;;;;5008885;28;87183;-51
2023/06/21 03:52:48;;;;;;;;;;;20.20;74.80;;;;;;5013909;28;87448;-53
2023/06/21 03:55:14;;;;;;;;;;;20.30;74.90;;;;;;5014344;28;87673;-52
2023/06/21 03:57:39;;;;;;;;;;;20.20;74.70;;;;;;5011522;28;87194;-52
2023/06/21 04:00:11;;;;;;;;;;;20.20;74.70;;;;;;5016792;28;87416;-54
2023/06/21 04:02:37;;;;;;;;;;;20.20;74.70;;;;;;5015367;28;87060;-54
2023/06/21 04:05:03;;;;;;;;;;;20.20;74.80;;;;;;5013573;28;87783;-54
2023/06/21 04:07:29;;;;;;;;;;;20.10;74.80;;;;;;5012954;28;87651;-49
2023/06/21 04:09:55;;;;;;;;;;;20.20;74.70;;;;;;5014759;28;87142;-48
2023/06/21 04:12:20;;;;;;;;;;;20.20;74.80;;;;;;5012211;28;88022;-47
2023/06/21 04:14:46;;;;;;;;;;;20.20;74.70;;;;;;5012677;28;89606;-48
2023/06/21 04:17:11;;;;;;;;;;;20.20;74.70;;;;;;5012110;28;87141;-49
2023/06/21 04:19:37;;;;;;;;;;;20.10;74.80;;;;;;5014677;28;87513;-50
2023/06/21 04:22:02;;;;;;;;;;;20.10;74.80;;;;;;5016121;28;88063;-48
2023/06/21 04:24:28;;;;;;;;;;;20.20;74.80;;;;;;5011988;28;87839;-47
2023/06/21 04:26:55;;;;;;;;;;;20.10;74.70;;;;;;5008041;28;88266;-48
2023/06/21 04:29:20;;;;;;;;;;;20.10;74.80;;;;;;5013250;28;86389;-49
2023/06/21 04:31:46;;;;;;;;;;;20.10;74.70;;;;;;5014547;28;86991;-49
2023/06/21 04:34:12;;;;;;;;;;;20.10;74.80;;;;;;5007909;28;88467;-48
2023/06/21 04:36:38;;;;;;;;;;;20.10;74.70;;;;;;5012678;28;88076;-48
2023/06/21 04:39:03;;;;;;;;;;;20.10;74.70;;;;;;5013995;28;88364;-54
2023/06/21 04:41:29;;;;;;;;;;;20.10;74.70;;;;;;5010556;28;89326;-49
2023/06/21 04:43:54;;;;;;;;;;;20.10;74.60;;;;;;5014534;28;87637;-50
2023/06/21 04:46:21;;;;;;;;;;;20.00;74.80;;;;;;5013840;28;87201;-47
2023/06/21 04:48:47;;;;;;;;;;;20.10;74.70;;;;;;5011302;28;87150;-49
2023/06/21 04:51:15;;;;;;;;;;;20.00;74.70;;;;;;5013397;28;87516;-49
2023/06/21 04:53:49;;;;;;;;;;;20.10;74.80;;;;;;5012717;28;90301;-50
2023/06/21 04:56:15;;;;;;;;;;;20.00;74.70;;;;;;5009907;28;87010;-51
2023/06/21 04:58:40;;;;;;;;;;;20.10;74.80;;;;;;5010453;28;88872;-50
2023/06/21 05:01:06;;;;;;;;;;;20.10;74.70;;;;;;5010530;28;89017;-50
2023/06/21 05:03:32;;;;;;;;;;;20.00;74.70;;;;;;5016095;28;87154;-47
2023/06/21 05:06:01;;;;;;;;;;;20.00;74.70;;;;;;5013189;28;89238;-47
2023/06/21 05:08:27;;;;;;;;;;;20.00;74.80;;;;;;5007557;28;87117;-52
2023/06/21 05:10:52;;;;;;;;;;;20.00;74.70;;;;;;5012482;28;88467;-50
2023/06/21 05:13:18;;;;;;;;;;;20.00;74.70;;;;;;5009036;28;88407;-48
2023/06/21 05:15:43;;;;;;;;;;;20.10;74.80;;;;;;5013716;28;87647;-51
2023/06/21 05:18:09;;;;;;;;;;;20.10;74.80;;;;;;5012814;28;87210;-50
2023/06/21 05:20:35;;;;;;;;;;;20.10;74.80;;;;;;5010979;28;89250;-47
2023/06/21 05:23:00;;;;;;;;;;;20.00;74.80;;;;;;5013728;28;87115;-46
2023/06/21 05:25:26;;;;;;;;;;;20.10;74.80;;;;;;5013797;28;88845;-51
2023/06/21 05:27:51;;;;;;;;;;;20.10;74.90;;;;;;5011389;28;87170;-48
2023/06/21 05:30:18;;;;;;;;;;;20.00;74.90;;;;;;5008559;28;87134;-47
2023/06/21 05:32:44;;;;;;;;;;;20.00;75.00;;;;;;5012203;28;89339;-49
2023/06/21 05:35:09;;;;;;;;;;;20.10;75.00;;;;;;5013124;28;87128;-50
2023/06/21 05:37:35;;;;;;;;;;;20.00;75.60;;;;;;5010927;28;87529;-49
2023/06/21 05:40:02;;;;;;;;;;;20.00;75.00;;;;;;5012205;28;87930;-50
2023/06/21 05:42:29;;;;;;;;;;;20.10;75.10;;;;;;5013201;28;86387;-48
2023/06/21 05:44:54;;;;;;;;;;;20.10;75.10;;;;;;5010589;28;87019;-48
2023/06/21 05:47:20;;;;;;;;;;;20.00;75.10;;;;;;5014289;28;87964;-47
2023/06/21 05:49:45;;;;;;;;;;;20.00;75.10;;;;;;5010899;28;87971;-49
2023/06/21 05:52:11;;;;;;;;;;;20.00;75.20;;;;;;5013165;28;88040;-50
2023/06/21 05:54:41;;;;;;;;;;;20.00;75.20;;;;;;5011435;28;87139;-47
2023/06/21 05:57:07;;;;;;;;;;;20.10;75.30;;;;;;5010599;28;87293;-52
2023/06/21 05:59:32;;;;;;;;;;;20.00;75.30;;;;;;5011077;28;88286;-48
2023/06/21 06:01:58;;;;;;;;;;;20.00;75.30;;;;;;5012441;28;87187;-47
2023/06/21 06:04:23;;;;;;;;;;;20.00;75.30;;;;;;5012792;28;87629;-47
2023/06/21 06:06:49;;;;;;;;;;;20.10;75.30;;;;;;5010415;28;87764;-47
2023/06/21 06:09:14;;;;;;;;;;;20.10;75.30;;;;;;5018923;28;87157;-49
2023/06/21 06:11:40;;;;;;;;;;;20.10;75.30;;;;;;5015910;28;88064;-51
2023/06/21 06:14:05;;;;;;;;;;;20.10;75.50;;;;;;5014088;28;88331;-49
2023/06/21 06:16:31;;;;;;;;;;;20.10;75.40;;;;;;5014569;28;87523;-47
2023/06/21 06:18:57;;;;;;;;;;;20.10;75.40;;;;;;5014379;28;89335;-49
2023/06/21 06:21:22;;;;;;;;;;;20.10;75.50;;;;;;5016474;28;87203;-50
2023/06/21 06:23:49;;;;;;;;;;;20.10;75.40;;;;;;5014282;28;87786;-52
2023/06/21 06:26:14;;;;;;;;;;;20.10;75.60;;;;;;5014755;28;88140;-48
2023/06/21 06:28:40;;;;;;;;;;;20.10;75.50;;;;;;5014919;28;87233;-52
2023/06/21 06:31:05;;;;;;;;;;;20.10;75.50;;;;;;5016929;28;88823;-46
2023/06/21 06:33:31;;;;;;;;;;;20.10;75.50;;;;;;5015124;28;87291;-51
2023/06/21 06:35:56;;;;;;;;;;;20.10;75.60;;;;;;5016026;28;87953;-51
2023/06/21 06:38:22;;;;;;;;;;;20.10;75.60;;;;;;5013001;28;89128;-48
2023/06/21 06:40:47;;;;;;;;;;;20.10;75.60;;;;;;5014758;28;87135;-49
2023/06/21 06:43:13;;;;;;;;;;;20.10;75.70;;;;;;5016108;28;87514;-51
2023/06/21 06:45:38;;;;;;;;;;;20.10;75.70;;;;;;5011610;28;88172;-48
2023/06/21 06:48:04;;;;;;;;;;;20.10;75.70;;;;;;5014616;28;87254;-52
2023/06/21 06:50:29;;;;;;;;;;;20.10;75.70;;;;;;5016717;28;87473;-47
2023/06/21 06:52:55;;;;;;;;;;;20.10;75.90;;;;;;5016150;28;87326;-49
2023/06/21 06:55:20;;;;;;;;;;;20.10;75.80;;;;;;5014438;28;86563;-49
2023/06/21 06:57:46;;;;;;;;;;;20.10;75.90;;;;;;5013825;28;87933;-51
2023/06/21 07:00:12;;;;;;;;;;;20.10;75.90;;;;;;5009380;28;86928;-49
2023/06/21 07:02:38;;;;;;;;;;;20.10;75.90;;;;;;5014846;28;88080;-50
2023/06/21 07:05:03;;;;;;;;;;;20.10;75.80;;;;;;5014720;28;88073;-46
2023/06/21 07:07:29;;;;;;;;;;;20.10;75.90;;;;;;5013084;28;87152;-51
2023/06/21 07:09:54;;;;;;;;;;;20.10;75.90;;;;;;5015607;28;87456;-52
2023/06/21 07:12:20;;;;;;;;;;;20.10;75.90;;;;;;5016945;28;88653;-51
2023/06/21 07:14:45;;;;;;;;;;;20.10;75.90;;;;;;5012477;28;87464;-48
2023/06/21 07:17:11;;;;;;;;;;;20.10;75.90;;;;;;5012838;28;87752;-48
2023/06/21 07:19:37;;;;;;;;;;;20.10;75.90;;;;;;5013656;28;86303;-48
2023/06/21 07:22:02;;;;;;;;;;;20.10;76.00;;;;;;5015278;28;87945;-50
2023/06/21 07:24:28;;;;;;;;;;;20.10;76.00;;;;;;5012685;28;88273;-48
2023/06/21 07:26:53;;;;;;;;;;;20.10;76.00;;;;;;5013585;28;88115;-51
2023/06/21 07:29:19;;;;;;;;;;;20.10;76.00;;;;;;5011887;28;88441;-49
2023/06/21 07:31:44;;;;;;;;;;;20.10;76.00;;;;;;5015189;28;87926;-52
2023/06/21 07:34:10;;;;;;;;;;;20.10;76.00;;;;;;5016439;28;87018;-49
2023/06/21 07:36:35;;;;;;;;;;;20.10;76.10;;;;;;5013290;28;88000;-49
2023/06/21 07:39:01;;;;;;;;;;;20.10;76.20;;;;;;5014969;28;87133;-48
2023/06/21 07:41:26;;;;;;;;;;;20.10;76.10;;;;;;5013251;28;87423;-51
2023/06/21 07:43:52;;;;;;;;;;;20.10;76.10;;;;;;5013744;28;86741;-52
2023/06/21 07:46:17;;;;;;;;;;;20.10;76.20;;;;;;5012167;28;87149;-51
2023/06/21 07:48:43;;;;;;;;;;;20.10;76.20;;;;;;5014998;28;87276;-49
2023/06/21 07:51:09;;;;;;;;;;;20.20;76.20;;;;;;5012989;28;89439;-53
2023/06/21 07:53:34;;;;;;;;;;;20.10;76.10;;;;;;5012320;28;87135;-52
2023/06/21 07:56:00;;;;;;;;;;;20.20;76.20;;;;;;5017581;28;87707;-49
2023/06/21 07:58:26;;;;;;;;;;;20.20;76.20;;;;;;5013463;28;87151;-53
2023/06/21 08:00:51;;;;;;;;;;;20.20;76.10;;;;;;5013579;28;87604;-52
2023/06/21 08:03:16;;;;;;;;;;;20.20;76.20;;;;;;5011876;28;87202;-49
2023/06/21 08:05:42;;;;;;;;;;;20.20;76.10;;;;;;5013881;28;87157;-51
2023/06/21 08:08:08;;;;;;;;;;;20.20;76.10;;;;;;5015101;28;86980;-51
2023/06/21 08:10:33;;;;;;;;;;;20.20;76.20;;;;;;5011856;28;88262;-54
2023/06/21 08:12:59;;;;;;;;;;;20.20;76.20;;;;;;5013854;28;87168;-51
2023/06/21 08:15:25;;;;;;;;;;;20.20;76.10;;;;;;5011899;28;88057;-50
2023/06/21 08:17:51;;;;;;;;;;;20.20;76.00;;;;;;5017337;28;89090;-53
2023/06/21 08:20:17;;;;;;;;;;;20.30;76.10;;;;;;5012838;28;88593;-48
2023/06/21 08:22:43;;;;;;;;;;;20.30;76.10;;;;;;5011889;28;89562;-49
2023/06/21 08:25:08;;;;;;;;;;;20.20;76.10;;;;;;5014398;28;87188;-49
2023/06/21 08:27:34;;;;;;;;;;;20.30;76.10;;;;;;5012983;28;87473;-48
2023/06/21 08:29:59;;;;;;;;;;;20.30;76.30;;;;;;5010006;28;88231;-49
2023/06/21 08:32:25;;;;;;;;;;;20.30;76.00;;;;;;5015076;28;87374;-46
2023/06/21 08:34:52;;;;;;;;;;;20.30;76.10;;;;;;5012357;28;87029;-48
2023/06/21 08:37:22;;;;;;;;;;;20.30;76.00;;;;;;5012074;28;88016;-51
2023/06/21 08:39:52;;;;;;;;;;;20.30;76.00;;;;;;5016169;28;88095;-51
2023/06/21 08:42:23;;;;;;;;;;;20.30;76.00;;;;;;5013159;28;89390;-50
2023/06/21 08:44:49;;;;;;;;;;;20.40;76.10;;;;;;5009949;28;87189;-52
2023/06/21 08:47:15;;;;;;;;;;;20.40;76.10;;;;;;5012936;28;87436;-51
2023/06/21 08:49:41;;;;;;;;;;;20.40;76.20;;;;;;5011583;28;88162;-51
2023/06/21 08:52:11;;;;;;;;;;;20.40;76.20;;;;;;5014406;28;87167;-49
2023/06/21 08:54:38;;;;;;;;;;;20.40;76.20;;;;;;5013196;28;87700;-47
2023/06/21 08:57:06;;;;;;;;;;;20.40;76.20;;;;;;5011473;28;87421;-48
2023/06/21 08:59:32;;;;;;;;;;;20.40;76.20;;;;;;5015659;28;87140;-50
2023/06/21 09:02:13;;;;;;;;;;;20.40;76.20;;;;;;5009357;28;88130;-50
2023/06/21 09:04:42;;;;;;;;;;;20.40;76.20;;;;;;5009858;28;87962;-47
2023/06/21 09:07:08;;;;;;;;;;;20.50;76.40;;;;;;5011258;28;88941;-50
2023/06/21 09:09:34;;;;;;;;;;;20.50;76.20;;;;;;5012916;28;88176;-48
2023/06/21 09:11:59;;;;;;;;;;;20.50;76.30;;;;;;5013178;28;87400;-50
2023/06/21 09:14:31;;;;;;;;;;;20.50;76.30;;;;;;5011408;28;87385;-47
2023/06/21 09:16:58;;;;;;;;;;;20.50;76.20;;;;;;5011087;28;89549;-48
2023/06/21 09:19:24;;;;;;;;;;;20.50;76.20;;;;;;5013835;28;87109;-51
2023/06/21 09:21:50;;;;;;;;;;;20.50;76.20;;;;;;5014317;28;87472;-48
2023/06/21 09:24:15;;;;;;;;;;;20.50;76.20;;;;;;5012331;28;87026;-50
2023/06/21 09:26:41;;;;;;;;;;;20.60;76.20;;;;;;5013566;28;88809;-47
2023/06/21 09:29:06;;;;;;;;;;;20.60;76.20;;;;;;5006172;28;89485;-47
2023/06/21 09:31:32;;;;;;;;;;;20.60;76.30;;;;;;5009758;28;87154;-47
2023/06/21 09:33:58;;;;;;;;;;;20.60;76.20;;;;;;5011459;28;87525;-46
2023/06/21 09:36:24;;;;;;;;;;;20.60;76.20;;;;;;5013353;28;87851;-48
2023/06/21 09:38:49;;;;;;;;;;;20.60;76.20;;;;;;5012110;28;87410;-49
2023/06/21 09:41:17;;;;;;;;;;;20.60;76.10;;;;;;5011130;28;87433;-47
2023/06/21 09:43:43;;;;;;;;;;;20.70;76.20;;;;;;5015152;28;87297;-47
2023/06/21 09:46:12;;;;;;;;;;;20.70;76.20;;;;;;5010841;28;89285;-49
2023/06/21 09:48:38;;;;;;;;;;;20.70;76.20;;;;;;5012819;28;89327;-49
2023/06/21 09:51:11;;;;;;;;;;;20.70;76.20;;;;;;5010788;28;87236;-51
2023/06/21 09:53:36;;;;;;;;;;;20.70;76.30;;;;;;5010323;28;87962;-48
2023/06/21 09:56:02;;;;;;;;;;;20.80;76.40;;;;;;5013061;28;87858;-51
2023/06/21 09:58:28;;;;;;;;;;;20.80;76.30;;;;;;5011856;28;87197;-48
2023/06/21 10:00:56;;;;;;;;;;;20.80;76.30;;;;;;5010514;28;89845;-47
2023/06/21 10:03:22;;;;;;;;;;;20.80;76.40;;;;;;5006481;28;89583;-47
2023/06/21 10:05:55;;;;;;;;;;;20.80;76.40;;;;;;5014632;28;87240;-47
2023/06/21 10:08:28;;;;;;;;;;;20.80;76.50;;;;;;5012657;28;89657;-48
2023/06/21 10:10:54;;;;;;;;;;;20.80;76.20;;;;;;5012787;28;86391;-49
2023/06/21 10:13:26;;;;;;;;;;;20.90;76.40;;;;;;5010560;28;87104;-51
2023/06/21 10:15:52;;;;;;;;;;;20.90;76.40;;;;;;5011449;28;88054;-46
2023/06/21 10:18:18;;;;;;;;;;;20.90;76.40;;;;;;5009580;28;88135;-47
2023/06/21 10:20:44;;;;;;;;;;;20.90;76.40;;;;;;5012953;28;88370;-50
2023/06/21 10:23:11;;;;;;;;;;;21.00;76.30;;;;;;5011472;28;88046;-51
2023/06/21 10:25:37;;;;;;;;;;;21.00;76.30;;;;;;5010352;28;87158;-48
2023/06/21 10:28:05;;;;;;;;;;;21.00;76.20;;;;;;5014891;28;87513;-53
2023/06/21 10:30:33;;;;;;;;;;;21.00;76.30;;;;;;5011658;28;87294;-49
2023/06/21 10:33:00;;;;;;;;;;;21.00;76.20;;;;;;5009206;28;87784;-51
2023/06/21 10:35:26;;;;;;;;;;;21.10;76.40;;;;;;5011624;28;87398;-53
2023/06/21 10:37:51;;;;;;;;;;;21.00;76.20;;;;;;5012498;28;87065;-46
2023/06/21 10:40:17;;;;;;;;;;;21.00;76.20;;;;;;5009181;28;88129;-49
2023/06/21 10:42:43;;;;;;;;;;;21.00;76.30;;;;;;5010823;28;88401;-49
2023/06/21 10:45:10;;;;;;;;;;;21.10;76.20;;;;;;5012042;28;87153;-48
2023/06/21 10:47:36;;;;;;;;;;;21.10;76.30;;;;;;5008744;28;87016;-47
2023/06/21 10:50:02;;;;;;;;;;;21.10;76.20;;;;;;5013657;28;88232;-48
2023/06/21 10:52:28;;;;;;;;;;;21.20;76.20;;;;;;5010625;28;87233;-48
2023/06/21 10:54:56;;;;;;;;;;;21.20;76.20;;;;;;5015035;28;88282;-46
2023/06/21 10:57:23;;;;;;;;;;;21.20;76.10;;;;;;5014143;28;87103;-52
2023/06/21 10:59:48;;;;;;;;;;;21.20;76.20;;;;;;5013707;28;87443;-47
2023/06/21 11:02:14;;;;;;;;;;;21.20;76.30;;;;;;5012289;28;88207;-52
2023/06/21 11:04:58;;;;;;;;;;;21.30;76.20;;;;;;5014308;28;87153;-50
2023/06/21 11:07:24;;;;;;;;;;;21.60;69.20;;;;;;5011295;28;88005;-49
2023/06/21 11:09:52;;;;;;;;;;;21.80;70.20;;;;;;5013220;28;89483;-47
2023/06/21 11:12:17;;;;;;;;;;;21.90;70.20;;;;;;5008634;28;87385;-48
2023/06/21 11:14:46;;;;;;;;;;;22.10;64.00;;;;;;5012342;28;88217;-44
2023/06/21 11:17:12;;;;;;;;;;;22.20;64.60;;;;;;5010171;28;87178;-45
2023/06/21 11:19:38;;;;;;;;;;;22.10;67.20;;;;;;5010664;28;87467;-45
2023/06/21 11:22:13;;;;;;;;;;;22.10;66.70;;;;;;5011943;28;88042;-46
2023/06/21 11:24:48;;;;;;;;;;;22.10;65.30;;;;;;5008426;28;86578;-48
2023/06/21 11:27:14;;;;;;;;;;;22.10;67.40;;;;;;5011300;28;87142;-46
2023/06/21 11:29:40;;;;;;;;;;;22.20;70.20;;;;;;5013091;28;88230;-48
2023/06/21 11:32:09;;;;;;;;;;;22.10;70.80;;;;;;5012192;28;88065;-46
2023/06/21 11:34:35;;;;;;;;;;;21.90;71.40;;;;;;5009073;28;89253;-46
2023/06/21 11:37:19;;;;;;;;;;;22.00;71.40;;;;;;5012642;28;87129;-47
2023/06/21 11:39:44;;;;;;;;;;;22.10;71.50;;;;;;5007843;28;87081;-45
2023/06/21 11:42:15;;;;;;;;;;;22.10;71.60;;;;;;5011961;28;88034;-46
2023/06/21 11:44:40;;;;;;;;;;;22.10;71.70;;;;;;5013835;28;87109;-46
2023/06/21 11:47:09;;;;;;;;;;;22.10;71.90;;;;;;5010018;28;87557;-46
2023/06/21 11:49:44;;;;;;;;;;;22.10;72.00;;;;;;5010462;28;87385;-46
2023/06/21 11:52:10;;;;;;;;;;;22.10;72.20;;;;;;5009825;28;86963;-47
2023/06/21 11:54:35;;;;;;;;;;;22.10;72.30;;;;;;5013704;28;87084;-47
2023/06/21 11:57:07;;;;;;;;;;;22.10;72.30;;;;;;5012553;28;88169;-46
2023/06/21 11:59:33;;;;;;;;;;;22.10;72.50;;;;;;5012750;28;88165;-48
2023/06/21 12:02:20;;;;;;;;;;;22.10;72.50;;;;;;5011007;28;87972;-47
2023/06/21 12:04:46;;;;;;;;;;;22.10;72.60;;;;;;5011742;28;87371;-46
2023/06/21 12:07:12;;;;;;;;;;;22.20;72.80;;;;;;5011031;28;87698;-49
2023/06/21 12:09:38;;;;;;;;;;;22.20;72.90;;;;;;5010246;28;87089;-49
2023/06/21 12:12:07;;;;;;;;;;;22.20;72.90;;;;;;5012959;28;87081;-46
2023/06/21 12:14:34;;;;;;;;;;;22.20;72.90;;;;;;5012358;28;89056;-46
2023/06/21 12:17:00;;;;;;;;;;;22.20;73.00;;;;;;5007128;28;90368;-46
2023/06/21 12:19:26;;;;;;;;;;;22.20;73.10;;;;;;5009867;28;87475;-48
2023/06/21 12:21:57;;;;;;;;;;;22.30;73.20;;;;;;5010474;28;89324;-46
2023/06/21 12:24:30;;;;;;;;;;;22.30;73.20;;;;;;5012869;28;87090;-49
2023/06/21 12:26:56;;;;;;;;;;;22.30;73.10;;;;;;5012131;28;88765;-49
2023/06/21 12:29:22;;;;;;;;;;;22.30;73.20;;;;;;5009729;28;88577;-49
2023/06/21 12:31:48;;;;;;;;;;;22.30;73.20;;;;;;5011065;28;87167;-50
2023/06/21 12:34:17;;;;;;;;;;;22.30;73.30;;;;;;5010479;28;87491;-50
2023/06/21 12:36:45;;;;;;;;;;;22.40;73.40;;;;;;5012079;28;88127;-48
2023/06/21 12:39:12;;;;;;;;;;;22.40;73.40;;;;;;5014587;28;86348;-47
2023/06/21 12:41:39;;;;;;;;;;;22.40;73.50;;;;;;5008984;28;89156;-45
2023/06/21 12:44:07;;;;;;;;;;;22.50;73.80;;;;;;5012085;28;87073;-46
2023/06/21 12:46:39;;;;;;;;;;;22.50;73.50;;;;;;5011082;28;88029;-46
2023/06/21 12:49:05;;;;;;;;;;;22.50;73.60;;;;;;5007537;28;88155;-46
2023/06/21 12:51:33;;;;;;;;;;;22.60;72.70;;;;;;5008414;28;87080;-48
2023/06/21 12:54:00;;;;;;;;;;;22.70;74.20;;;;;;5012240;28;88905;-53
2023/06/21 12:56:28;;;;;;;;;;;22.70;73.50;;;;;;5009883;28;88279;-45
2023/06/21 12:58:53;;;;;;;;;;;22.70;75.00;;;;;;5009834;28;87182;-52
2023/06/21 13:01:19;;;;;;;;;;;22.80;75.30;;;;;;5014712;28;87393;-45
2023/06/21 13:03:44;;;;;;;;;;;22.90;74.40;;;;;;5008461;28;86416;-54
2023/06/21 13:06:10;;;;;;;;;;;23.10;74.40;;;;;;5010591;28;87571;-47
2023/06/21 13:08:35;;;;;;;;;;;23.10;74.10;;;;;;5009198;28;87969;-46
2023/06/21 13:11:01;;;;;;;;;;;23.10;73.20;;;;;;5010886;28;88062;-47
2023/06/21 13:13:27;;;;;;;;;;;23.00;74.00;;;;;;5011147;28;88105;-45
2023/06/21 13:15:53;;;;;;;;;;;23.00;73.60;;;;;;5008757;28;88211;-46
2023/06/21 13:18:18;;;;;;;;;;;23.10;73.50;;;;;;5009421;28;86985;-45
2023/06/21 13:20:44;;;;;;;;;;;23.10;73.40;;;;;;5011529;28;87469;-48
2023/06/21 13:23:10;;;;;;;;;;;23.10;73.50;;;;;;5009634;28;87276;-45
2023/06/21 13:25:36;;;;;;;;;;;23.10;73.70;;;;;;5006115;28;87466;-45
2023/06/21 13:28:01;;;;;;;;;;;23.10;73.70;;;;;;5010807;28;87481;-45
2023/06/21 13:30:27;;;;;;;;;;;23.10;73.70;;;;;;5011290;28;86993;-46
2023/06/21 13:32:52;;;;;;;;;;;23.10;73.70;;;;;;5008652;28;87758;-44
2023/06/21 13:35:18;;;;;;;;;;;23.10;73.60;;;;;;5006267;28;89085;-46
2023/06/21 13:37:43;;;;;;;;;;;23.10;73.60;;;;;;5011351;28;87116;-46
2023/06/21 13:40:09;;;;;;;;;;;23.20;73.60;;;;;;5008687;28;88100;-45
2023/06/21 13:42:35;;;;;;;;;;;23.20;73.50;;;;;;5013318;28;87994;-46
2023/06/21 13:45:00;;;;;;;;;;;23.20;73.50;;;;;;5011367;28;87414;-46
2023/06/21 13:47:26;;;;;;;;;;;23.20;73.60;;;;;;5008306;28;87726;-48
2023/06/21 13:49:51;;;;;;;;;;;23.20;73.70;;;;;;5011223;28;87184;-46
2023/06/21 13:52:22;;;;;;;;;;;23.20;73.50;;;;;;5007857;28;88081;-46
2023/06/21 13:54:48;;;;;;;;;;;23.20;73.60;;;;;;5011062;28;87226;-46
2023/06/21 13:57:16;;;;;;;;;;;23.20;73.50;;;;;;5009719;28;87100;-44
2023/06/21 13:59:42;;;;;;;;;;;23.30;73.50;;;;;;5008378;28;88047;-44
2023/06/21 14:02:08;;;;;;;;;;;23.30;73.50;;;;;;5005173;28;88079;-47
2023/06/21 14:04:34;;;;;;;;;;;23.30;73.50;;;;;;5013609;28;87309;-47
2023/06/21 14:07:00;;;;;;;;;;;23.30;73.40;;;;;;5009570;28;87957;-47
2023/06/21 14:09:25;;;;;;;;;;;23.30;73.40;;;;;;5005069;28;86957;-46
2023/06/21 14:11:51;;;;;;;;;;;23.30;73.20;;;;;;5009607;28;88986;-50